sensor_id;sensor_type;location;lat;lon;timestamp;P1;durP1;ratioP1;P2;durP2;ratioP2
12871;SDS011;6504;53.766;9.626;2024-01-11T00:00:43;28.77;;;20.60;;
12871;SDS011;6504;53.766;9.626;2024-01-11T00:03:13;28.00;;;20.13;;
12871;SDS011;6504;53.766;9.626;2024-01-11T00:05:42;26.57;;;20.10;;
12871;SDS011;6504;53.766;9.626;2024-01-11T00:08:11;30.33;;;22.53;;
12871;SDS011;6504;53.766;9.626;2024-01-11T00:10:39;30.83;;;21.53;;
12871;SDS011;6504;53.766;9.626;2024-01-11T00:13:07;29.53;;;21.03;;
12871;SDS011;6504;53.766;9.626;2024-01-11T00:15:35;28.00;;;20.23;;
12871;SDS011;6504;53.766;9.626;2024-01-11T00:18:04;29.53;;;21.67;;
12871;SDS011;6504;53.766;9.626;2024-01-11T00:20:34;28.90;;;21.23;;
12871;SDS011;6504;53.766;9.626;2024-01-11T00:23:05;31.10;;;20.70;;
12871;SDS011;6504;53.766;9.626;2024-01-11T00:25:33;29.87;;;22.87;;
12871;SDS011;6504;53.766;9.626;2024-01-11T00:28:01;28.40;;;22.10;;
12871;SDS011;6504;53.766;9.626;2024-01-11T00:30:30;28.93;;;20.37;;
12871;SDS011;6504;53.766;9.626;2024-01-11T00:32:58;29.37;;;21.07;;
12871;SDS011;6504;53.766;9.626;2024-01-11T00:35:27;30.17;;;20.87;;
12871;SDS011;6504;53.766;9.626;2024-01-11T00:37:56;28.73;;;20.30;;
12871;SDS011;6504;53.766;9.626;2024-01-11T00:40:24;29.03;;;20.60;;
12871;SDS011;6504;53.766;9.626;2024-01-11T00:42:52;26.63;;;19.83;;
12871;SDS011;6504;53.766;9.626;2024-01-11T00:45:20;27.30;;;19.10;;
12871;SDS011;6504;53.766;9.626;2024-01-11T00:47:48;29.53;;;20.53;;
12871;SDS011;6504;53.766;9.626;2024-01-11T00:50:16;26.40;;;19.97;;
12871;SDS011;6504;53.766;9.626;2024-01-11T00:52:45;30.23;;;21.43;;
12871;SDS011;6504;53.766;9.626;2024-01-11T00:55:14;27.73;;;20.20;;
12871;SDS011;6504;53.766;9.626;2024-01-11T00:57:42;27.07;;;20.13;;
12871;SDS011;6504;53.766;9.626;2024-01-11T01:00:11;29.17;;;20.33;;
12871;SDS011;6504;53.766;9.626;2024-01-11T01:02:41;29.50;;;21.33;;
12871;SDS011;6504;53.766;9.626;2024-01-11T01:05:09;30.40;;;20.67;;
12871;SDS011;6504;53.766;9.626;2024-01-11T01:07:38;27.40;;;19.17;;
12871;SDS011;6504;53.766;9.626;2024-01-11T01:10:06;24.10;;;18.03;;
12871;SDS011;6504;53.766;9.626;2024-01-11T01:12:36;25.97;;;18.63;;
12871;SDS011;6504;53.766;9.626;2024-01-11T01:15:05;26.33;;;18.73;;
12871;SDS011;6504;53.766;9.626;2024-01-11T01:17:34;24.13;;;17.80;;
12871;SDS011;6504;53.766;9.626;2024-01-11T01:20:02;26.50;;;18.17;;
12871;SDS011;6504;53.766;9.626;2024-01-11T01:22:31;25.23;;;18.57;;
12871;SDS011;6504;53.766;9.626;2024-01-11T01:24:59;24.93;;;18.30;;
12871;SDS011;6504;53.766;9.626;2024-01-11T01:27:27;24.20;;;17.97;;
12871;SDS011;6504;53.766;9.626;2024-01-11T01:29:57;28.87;;;20.63;;
12871;SDS011;6504;53.766;9.626;2024-01-11T01:32:25;25.37;;;18.93;;
12871;SDS011;6504;53.766;9.626;2024-01-11T01:34:53;29.67;;;20.40;;
12871;SDS011;6504;53.766;9.626;2024-01-11T01:37:21;31.27;;;21.77;;
12871;SDS011;6504;53.766;9.626;2024-01-11T01:39:49;30.27;;;20.07;;
12871;SDS011;6504;53.766;9.626;2024-01-11T01:42:17;31.40;;;22.30;;
12871;SDS011;6504;53.766;9.626;2024-01-11T01:44:45;37.40;;;23.13;;
12871;SDS011;6504;53.766;9.626;2024-01-11T01:47:15;33.77;;;21.87;;
12871;SDS011;6504;53.766;9.626;2024-01-11T01:49:45;34.40;;;23.23;;
12871;SDS011;6504;53.766;9.626;2024-01-11T01:52:16;34.30;;;21.57;;
12871;SDS011;6504;53.766;9.626;2024-01-11T01:54:45;36.57;;;23.97;;
12871;SDS011;6504;53.766;9.626;2024-01-11T01:57:14;35.40;;;22.83;;
12871;SDS011;6504;53.766;9.626;2024-01-11T01:59:46;36.10;;;23.40;;
12871;SDS011;6504;53.766;9.626;2024-01-11T02:02:19;33.50;;;21.07;;
12871;SDS011;6504;53.766;9.626;2024-01-11T02:04:48;32.90;;;22.23;;
12871;SDS011;6504;53.766;9.626;2024-01-11T02:07:16;32.03;;;20.90;;
12871;SDS011;6504;53.766;9.626;2024-01-11T02:09:46;30.97;;;20.67;;
12871;SDS011;6504;53.766;9.626;2024-01-11T02:12:14;30.63;;;21.03;;
12871;SDS011;6504;53.766;9.626;2024-01-11T02:14:44;31.57;;;20.83;;
12871;SDS011;6504;53.766;9.626;2024-01-11T02:17:12;29.40;;;20.03;;
12871;SDS011;6504;53.766;9.626;2024-01-11T02:19:41;31.53;;;21.30;;
12871;SDS011;6504;53.766;9.626;2024-01-11T02:22:12;32.57;;;21.57;;
12871;SDS011;6504;53.766;9.626;2024-01-11T02:24:48;31.03;;;21.37;;
12871;SDS011;6504;53.766;9.626;2024-01-11T02:27:16;35.70;;;23.43;;
12871;SDS011;6504;53.766;9.626;2024-01-11T02:29:44;35.80;;;23.50;;
12871;SDS011;6504;53.766;9.626;2024-01-11T02:32:12;43.33;;;27.40;;
12871;SDS011;6504;53.766;9.626;2024-01-11T02:34:41;45.80;;;28.20;;
12871;SDS011;6504;53.766;9.626;2024-01-11T02:37:09;52.07;;;30.27;;
12871;SDS011;6504;53.766;9.626;2024-01-11T02:39:38;49.70;;;30.33;;
12871;SDS011;6504;53.766;9.626;2024-01-11T02:42:08;55.37;;;33.23;;
12871;SDS011;6504;53.766;9.626;2024-01-11T02:44:36;58.43;;;33.30;;
12871;SDS011;6504;53.766;9.626;2024-01-11T02:47:05;53.73;;;31.20;;
12871;SDS011;6504;53.766;9.626;2024-01-11T02:49:33;60.53;;;34.80;;
12871;SDS011;6504;53.766;9.626;2024-01-11T02:52:03;62.97;;;35.23;;
12871;SDS011;6504;53.766;9.626;2024-01-11T02:54:31;64.77;;;36.03;;
12871;SDS011;6504;53.766;9.626;2024-01-11T02:56:59;69.30;;;36.03;;
12871;SDS011;6504;53.766;9.626;2024-01-11T02:59:29;61.17;;;35.03;;
12871;SDS011;6504;53.766;9.626;2024-01-11T03:01:57;64.23;;;34.70;;
12871;SDS011;6504;53.766;9.626;2024-01-11T03:04:25;64.63;;;36.53;;
12871;SDS011;6504;53.766;9.626;2024-01-11T03:06:54;65.00;;;36.40;;
12871;SDS011;6504;53.766;9.626;2024-01-11T03:09:22;66.77;;;35.60;;
12871;SDS011;6504;53.766;9.626;2024-01-11T03:11:50;67.87;;;38.47;;
12871;SDS011;6504;53.766;9.626;2024-01-11T03:14:18;69.37;;;38.00;;
12871;SDS011;6504;53.766;9.626;2024-01-11T03:16:47;61.83;;;36.03;;
12871;SDS011;6504;53.766;9.626;2024-01-11T03:19:16;56.30;;;34.27;;
12871;SDS011;6504;53.766;9.626;2024-01-11T03:21:44;53.57;;;32.13;;
12871;SDS011;6504;53.766;9.626;2024-01-11T03:24:13;49.93;;;30.03;;
12871;SDS011;6504;53.766;9.626;2024-01-11T03:26:41;42.63;;;26.80;;
12871;SDS011;6504;53.766;9.626;2024-01-11T03:29:09;39.23;;;24.67;;
12871;SDS011;6504;53.766;9.626;2024-01-11T03:31:37;37.40;;;23.70;;
12871;SDS011;6504;53.766;9.626;2024-01-11T03:34:09;36.07;;;22.67;;
12871;SDS011;6504;53.766;9.626;2024-01-11T03:36:37;30.43;;;19.73;;
12871;SDS011;6504;53.766;9.626;2024-01-11T03:39:05;27.60;;;18.87;;
12871;SDS011;6504;53.766;9.626;2024-01-11T03:41:34;30.67;;;18.73;;
12871;SDS011;6504;53.766;9.626;2024-01-11T03:44:02;28.77;;;18.90;;
12871;SDS011;6504;53.766;9.626;2024-01-11T03:46:30;25.27;;;16.47;;
12871;SDS011;6504;53.766;9.626;2024-01-11T03:48:58;24.50;;;16.40;;
12871;SDS011;6504;53.766;9.626;2024-01-11T03:51:28;21.47;;;15.87;;
12871;SDS011;6504;53.766;9.626;2024-01-11T03:53:56;21.00;;;15.40;;
12871;SDS011;6504;53.766;9.626;2024-01-11T03:56:25;21.77;;;15.17;;
12871;SDS011;6504;53.766;9.626;2024-01-11T03:58:53;20.47;;;14.30;;
12871;SDS011;6504;53.766;9.626;2024-01-11T04:01:21;21.67;;;15.40;;
12871;SDS011;6504;53.766;9.626;2024-01-11T04:03:49;19.03;;;13.90;;
12871;SDS011;6504;53.766;9.626;2024-01-11T04:06:19;18.27;;;13.00;;
12871;SDS011;6504;53.766;9.626;2024-01-11T04:08:50;19.20;;;13.00;;
12871;SDS011;6504;53.766;9.626;2024-01-11T04:11:18;19.10;;;12.97;;
12871;SDS011;6504;53.766;9.626;2024-01-11T04:13:47;18.73;;;12.70;;
12871;SDS011;6504;53.766;9.626;2024-01-11T04:16:15;18.30;;;12.53;;
12871;SDS011;6504;53.766;9.626;2024-01-11T04:18:43;18.30;;;12.70;;
12871;SDS011;6504;53.766;9.626;2024-01-11T04:21:19;18.40;;;12.50;;
12871;SDS011;6504;53.766;9.626;2024-01-11T04:23:50;17.83;;;12.23;;
12871;SDS011;6504;53.766;9.626;2024-01-11T04:26:18;19.63;;;12.77;;
12871;SDS011;6504;53.766;9.626;2024-01-11T04:28:46;20.90;;;12.63;;
12871;SDS011;6504;53.766;9.626;2024-01-11T04:31:15;21.40;;;12.40;;
12871;SDS011;6504;53.766;9.626;2024-01-11T04:33:44;21.83;;;12.67;;
12871;SDS011;6504;53.766;9.626;2024-01-11T04:36:13;23.63;;;13.00;;
12871;SDS011;6504;53.766;9.626;2024-01-11T04:38:41;24.47;;;13.20;;
12871;SDS011;6504;53.766;9.626;2024-01-11T04:41:10;27.67;;;14.93;;
12871;SDS011;6504;53.766;9.626;2024-01-11T04:43:40;26.00;;;13.40;;
12871;SDS011;6504;53.766;9.626;2024-01-11T04:46:15;25.47;;;13.77;;
12871;SDS011;6504;53.766;9.626;2024-01-11T04:48:44;26.43;;;13.77;;
12871;SDS011;6504;53.766;9.626;2024-01-11T04:51:13;28.40;;;14.53;;
12871;SDS011;6504;53.766;9.626;2024-01-11T04:53:42;24.93;;;14.20;;
12871;SDS011;6504;53.766;9.626;2024-01-11T04:56:13;26.10;;;14.23;;
12871;SDS011;6504;53.766;9.626;2024-01-11T04:58:43;29.87;;;15.43;;
12871;SDS011;6504;53.766;9.626;2024-01-11T05:01:12;30.80;;;15.37;;
12871;SDS011;6504;53.766;9.626;2024-01-11T05:03:41;28.13;;;14.97;;
12871;SDS011;6504;53.766;9.626;2024-01-11T05:06:14;27.83;;;15.07;;
12871;SDS011;6504;53.766;9.626;2024-01-11T05:08:43;25.93;;;13.90;;
12871;SDS011;6504;53.766;9.626;2024-01-11T05:11:17;24.73;;;13.97;;
12871;SDS011;6504;53.766;9.626;2024-01-11T05:13:46;26.10;;;14.30;;
12871;SDS011;6504;53.766;9.626;2024-01-11T05:16:17;24.87;;;12.77;;
12871;SDS011;6504;53.766;9.626;2024-01-11T05:18:46;26.20;;;14.10;;
12871;SDS011;6504;53.766;9.626;2024-01-11T05:21:14;26.80;;;13.33;;
12871;SDS011;6504;53.766;9.626;2024-01-11T05:23:43;24.00;;;13.43;;
12871;SDS011;6504;53.766;9.626;2024-01-11T05:26:12;17.17;;;9.80;;
12871;SDS011;6504;53.766;9.626;2024-01-11T05:28:42;15.53;;;9.00;;
12871;SDS011;6504;53.766;9.626;2024-01-11T05:31:10;13.93;;;7.97;;
12871;SDS011;6504;53.766;9.626;2024-01-11T05:33:40;12.60;;;7.73;;
12871;SDS011;6504;53.766;9.626;2024-01-11T05:36:08;11.77;;;7.50;;
12871;SDS011;6504;53.766;9.626;2024-01-11T05:38:37;13.40;;;8.27;;
12871;SDS011;6504;53.766;9.626;2024-01-11T05:41:06;13.00;;;8.57;;
12871;SDS011;6504;53.766;9.626;2024-01-11T05:43:36;12.07;;;7.07;;
12871;SDS011;6504;53.766;9.626;2024-01-11T05:46:09;12.20;;;7.53;;
12871;SDS011;6504;53.766;9.626;2024-01-11T05:48:37;11.13;;;6.60;;
12871;SDS011;6504;53.766;9.626;2024-01-11T05:51:05;10.80;;;7.10;;
12871;SDS011;6504;53.766;9.626;2024-01-11T05:53:33;11.80;;;7.50;;
12871;SDS011;6504;53.766;9.626;2024-01-11T05:56:06;11.83;;;7.37;;
12871;SDS011;6504;53.766;9.626;2024-01-11T05:58:35;11.97;;;7.50;;
12871;SDS011;6504;53.766;9.626;2024-01-11T06:01:04;13.87;;;8.23;;
12871;SDS011;6504;53.766;9.626;2024-01-11T06:03:34;19.00;;;10.17;;
12871;SDS011;6504;53.766;9.626;2024-01-11T06:06:04;19.97;;;9.50;;
12871;SDS011;6504;53.766;9.626;2024-01-11T06:08:32;18.13;;;9.77;;
12871;SDS011;6504;53.766;9.626;2024-01-11T06:11:00;16.37;;;9.47;;
12871;SDS011;6504;53.766;9.626;2024-01-11T06:13:28;13.63;;;8.50;;
12871;SDS011;6504;53.766;9.626;2024-01-11T06:15:57;15.17;;;8.63;;
12871;SDS011;6504;53.766;9.626;2024-01-11T06:18:25;15.97;;;8.63;;
12871;SDS011;6504;53.766;9.626;2024-01-11T06:20:54;16.40;;;8.97;;
12871;SDS011;6504;53.766;9.626;2024-01-11T06:23:23;14.57;;;8.33;;
12871;SDS011;6504;53.766;9.626;2024-01-11T06:25:53;13.53;;;8.57;;
12871;SDS011;6504;53.766;9.626;2024-01-11T06:28:21;13.23;;;8.30;;
12871;SDS011;6504;53.766;9.626;2024-01-11T06:30:49;14.07;;;7.53;;
12871;SDS011;6504;53.766;9.626;2024-01-11T06:33:17;18.63;;;9.73;;
12871;SDS011;6504;53.766;9.626;2024-01-11T06:35:46;16.70;;;8.57;;
12871;SDS011;6504;53.766;9.626;2024-01-11T06:38:16;18.87;;;9.67;;
12871;SDS011;6504;53.766;9.626;2024-01-11T06:40:44;20.03;;;9.80;;
12871;SDS011;6504;53.766;9.626;2024-01-11T06:43:12;19.40;;;9.83;;
12871;SDS011;6504;53.766;9.626;2024-01-11T06:45:41;17.10;;;9.23;;
12871;SDS011;6504;53.766;9.626;2024-01-11T06:48:10;22.27;;;12.40;;
12871;SDS011;6504;53.766;9.626;2024-01-11T06:50:38;21.20;;;10.53;;
12871;SDS011;6504;53.766;9.626;2024-01-11T06:53:07;20.80;;;11.23;;
12871;SDS011;6504;53.766;9.626;2024-01-11T06:55:37;19.73;;;10.33;;
12871;SDS011;6504;53.766;9.626;2024-01-11T06:58:07;20.37;;;11.77;;
12871;SDS011;6504;53.766;9.626;2024-01-11T07:00:35;19.63;;;11.43;;
12871;SDS011;6504;53.766;9.626;2024-01-11T07:03:04;19.67;;;11.40;;
12871;SDS011;6504;53.766;9.626;2024-01-11T07:05:32;19.50;;;11.67;;
12871;SDS011;6504;53.766;9.626;2024-01-11T07:08:00;21.53;;;11.43;;
12871;SDS011;6504;53.766;9.626;2024-01-11T07:10:29;19.07;;;10.37;;
12871;SDS011;6504;53.766;9.626;2024-01-11T07:12:59;22.63;;;11.97;;
12871;SDS011;6504;53.766;9.626;2024-01-11T07:15:27;20.27;;;11.67;;
12871;SDS011;6504;53.766;9.626;2024-01-11T07:17:56;21.93;;;12.90;;
12871;SDS011;6504;53.766;9.626;2024-01-11T07:20:24;23.47;;;11.93;;
12871;SDS011;6504;53.766;9.626;2024-01-11T07:22:52;24.83;;;11.43;;
12871;SDS011;6504;53.766;9.626;2024-01-11T07:25:21;19.47;;;11.43;;
12871;SDS011;6504;53.766;9.626;2024-01-11T07:27:49;22.37;;;11.97;;
12871;SDS011;6504;53.766;9.626;2024-01-11T07:30:18;23.80;;;12.33;;
12871;SDS011;6504;53.766;9.626;2024-01-11T07:32:46;22.87;;;11.23;;
12871;SDS011;6504;53.766;9.626;2024-01-11T07:35:15;22.67;;;12.70;;
12871;SDS011;6504;53.766;9.626;2024-01-11T07:37:44;21.53;;;11.37;;
12871;SDS011;6504;53.766;9.626;2024-01-11T07:40:13;23.30;;;11.13;;
12871;SDS011;6504;53.766;9.626;2024-01-11T07:42:41;17.67;;;8.93;;
12871;SDS011;6504;53.766;9.626;2024-01-11T07:45:10;15.73;;;7.97;;
12871;SDS011;6504;53.766;9.626;2024-01-11T07:47:39;12.47;;;6.97;;
12871;SDS011;6504;53.766;9.626;2024-01-11T07:50:08;12.50;;;6.63;;
12871;SDS011;6504;53.766;9.626;2024-01-11T07:52:37;12.20;;;6.53;;
12871;SDS011;6504;53.766;9.626;2024-01-11T07:55:08;9.70;;;4.93;;
12871;SDS011;6504;53.766;9.626;2024-01-11T07:57:39;8.30;;;4.50;;
12871;SDS011;6504;53.766;9.626;2024-01-11T08:00:13;9.57;;;4.90;;
12871;SDS011;6504;53.766;9.626;2024-01-11T08:02:44;9.37;;;4.57;;
12871;SDS011;6504;53.766;9.626;2024-01-11T08:05:13;10.57;;;5.40;;
12871;SDS011;6504;53.766;9.626;2024-01-11T08:07:41;11.43;;;5.27;;
12871;SDS011;6504;53.766;9.626;2024-01-11T08:10:09;9.63;;;4.90;;
12871;SDS011;6504;53.766;9.626;2024-01-11T08:12:38;10.93;;;4.63;;
12871;SDS011;6504;53.766;9.626;2024-01-11T08:15:06;10.97;;;5.30;;
12871;SDS011;6504;53.766;9.626;2024-01-11T08:17:39;9.90;;;5.23;;
12871;SDS011;6504;53.766;9.626;2024-01-11T08:20:14;10.23;;;4.43;;
12871;SDS011;6504;53.766;9.626;2024-01-11T08:22:42;9.80;;;4.70;;
12871;SDS011;6504;53.766;9.626;2024-01-11T08:25:12;9.53;;;4.83;;
12871;SDS011;6504;53.766;9.626;2024-01-11T08:27:41;9.20;;;5.80;;
12871;SDS011;6504;53.766;9.626;2024-01-11T08:30:09;9.43;;;5.30;;
12871;SDS011;6504;53.766;9.626;2024-01-11T08:32:39;7.77;;;4.73;;
12871;SDS011;6504;53.766;9.626;2024-01-11T08:35:11;10.00;;;5.80;;
12871;SDS011;6504;53.766;9.626;2024-01-11T08:37:39;10.90;;;5.03;;
12871;SDS011;6504;53.766;9.626;2024-01-11T08:40:07;12.70;;;6.27;;
12871;SDS011;6504;53.766;9.626;2024-01-11T08:42:37;13.03;;;6.70;;
12871;SDS011;6504;53.766;9.626;2024-01-11T08:45:08;11.43;;;6.47;;
12871;SDS011;6504;53.766;9.626;2024-01-11T08:47:36;13.50;;;6.50;;
12871;SDS011;6504;53.766;9.626;2024-01-11T08:50:05;11.87;;;6.57;;
12871;SDS011;6504;53.766;9.626;2024-01-11T08:52:36;15.90;;;7.97;;
12871;SDS011;6504;53.766;9.626;2024-01-11T08:55:05;13.27;;;7.03;;
12871;SDS011;6504;53.766;9.626;2024-01-11T08:57:34;13.70;;;6.53;;
12871;SDS011;6504;53.766;9.626;2024-01-11T09:00:03;13.33;;;7.60;;
12871;SDS011;6504;53.766;9.626;2024-01-11T09:02:33;14.80;;;7.20;;
12871;SDS011;6504;53.766;9.626;2024-01-11T09:05:01;13.80;;;6.90;;
12871;SDS011;6504;53.766;9.626;2024-01-11T09:07:35;14.23;;;6.97;;
12871;SDS011;6504;53.766;9.626;2024-01-11T09:10:04;13.27;;;6.33;;
12871;SDS011;6504;53.766;9.626;2024-01-11T09:12:34;12.70;;;6.40;;
12871;SDS011;6504;53.766;9.626;2024-01-11T09:15:03;10.53;;;5.40;;
12871;SDS011;6504;53.766;9.626;2024-01-11T09:17:32;12.70;;;5.90;;
12871;SDS011;6504;53.766;9.626;2024-01-11T09:20:00;13.10;;;5.40;;
12871;SDS011;6504;53.766;9.626;2024-01-11T09:22:28;13.23;;;6.20;;
12871;SDS011;6504;53.766;9.626;2024-01-11T09:24:57;13.47;;;5.53;;
12871;SDS011;6504;53.766;9.626;2024-01-11T09:27:25;12.00;;;6.10;;
12871;SDS011;6504;53.766;9.626;2024-01-11T09:29:54;10.47;;;5.70;;
12871;SDS011;6504;53.766;9.626;2024-01-11T09:32:22;12.20;;;6.40;;
12871;SDS011;6504;53.766;9.626;2024-01-11T09:34:52;12.03;;;6.10;;
12871;SDS011;6504;53.766;9.626;2024-01-11T09:37:21;15.27;;;7.83;;
12871;SDS011;6504;53.766;9.626;2024-01-11T09:39:50;12.83;;;6.70;;
12871;SDS011;6504;53.766;9.626;2024-01-11T09:42:19;11.23;;;6.93;;
12871;SDS011;6504;53.766;9.626;2024-01-11T09:44:49;14.73;;;8.33;;
12871;SDS011;6504;53.766;9.626;2024-01-11T09:47:17;17.63;;;8.33;;
12871;SDS011;6504;53.766;9.626;2024-01-11T09:49:47;15.90;;;8.70;;
12871;SDS011;6504;53.766;9.626;2024-01-11T09:52:19;20.17;;;9.83;;
12871;SDS011;6504;53.766;9.626;2024-01-11T09:54:48;19.33;;;10.73;;
12871;SDS011;6504;53.766;9.626;2024-01-11T09:57:16;21.53;;;10.67;;
12871;SDS011;6504;53.766;9.626;2024-01-11T09:59:54;20.23;;;10.90;;
12871;SDS011;6504;53.766;9.626;2024-01-11T10:02:23;23.40;;;12.07;;
12871;SDS011;6504;53.766;9.626;2024-01-11T10:04:53;25.20;;;12.00;;
12871;SDS011;6504;53.766;9.626;2024-01-11T10:07:21;30.60;;;14.47;;
12871;SDS011;6504;53.766;9.626;2024-01-11T10:09:51;25.77;;;13.27;;
12871;SDS011;6504;53.766;9.626;2024-01-11T10:12:20;28.30;;;13.67;;
12871;SDS011;6504;53.766;9.626;2024-01-11T10:14:52;27.70;;;14.33;;
12871;SDS011;6504;53.766;9.626;2024-01-11T10:17:21;28.30;;;14.87;;
12871;SDS011;6504;53.766;9.626;2024-01-11T10:19:52;32.63;;;15.10;;
12871;SDS011;6504;53.766;9.626;2024-01-11T10:22:21;31.90;;;16.23;;
12871;SDS011;6504;53.766;9.626;2024-01-11T10:24:57;31.60;;;16.53;;
12871;SDS011;6504;53.766;9.626;2024-01-11T10:27:39;35.00;;;16.83;;
12871;SDS011;6504;53.766;9.626;2024-01-11T10:30:11;30.03;;;15.53;;
12871;SDS011;6504;53.766;9.626;2024-01-11T10:32:43;35.10;;;16.70;;
12871;SDS011;6504;53.766;9.626;2024-01-11T10:35:11;32.27;;;17.70;;
12871;SDS011;6504;53.766;9.626;2024-01-11T10:37:39;34.27;;;16.30;;
12871;SDS011;6504;53.766;9.626;2024-01-11T10:40:10;34.10;;;16.17;;
12871;SDS011;6504;53.766;9.626;2024-01-11T10:42:41;34.90;;;16.07;;
12871;SDS011;6504;53.766;9.626;2024-01-11T10:45:13;34.73;;;15.17;;
12871;SDS011;6504;53.766;9.626;2024-01-11T10:47:46;33.50;;;16.70;;
12871;SDS011;6504;53.766;9.626;2024-01-11T10:50:19;32.37;;;15.00;;
12871;SDS011;6504;53.766;9.626;2024-01-11T10:52:56;31.60;;;14.47;;
12871;SDS011;6504;53.766;9.626;2024-01-11T10:55:31;29.60;;;15.87;;
12871;SDS011;6504;53.766;9.626;2024-01-11T10:58:01;33.53;;;16.43;;
12871;SDS011;6504;53.766;9.626;2024-01-11T11:00:31;28.10;;;15.13;;
12871;SDS011;6504;53.766;9.626;2024-01-11T11:03:02;35.33;;;16.87;;
12871;SDS011;6504;53.766;9.626;2024-01-11T11:05:34;33.03;;;16.63;;
12871;SDS011;6504;53.766;9.626;2024-01-11T11:08:03;38.40;;;18.90;;
12871;SDS011;6504;53.766;9.626;2024-01-11T11:10:33;31.67;;;15.80;;
12871;SDS011;6504;53.766;9.626;2024-01-11T11:13:01;30.07;;;15.57;;
12871;SDS011;6504;53.766;9.626;2024-01-11T11:15:32;31.03;;;15.20;;
12871;SDS011;6504;53.766;9.626;2024-01-11T11:18:03;31.33;;;14.43;;
12871;SDS011;6504;53.766;9.626;2024-01-11T11:20:33;30.77;;;16.57;;
12871;SDS011;6504;53.766;9.626;2024-01-11T11:23:05;29.13;;;15.70;;
12871;SDS011;6504;53.766;9.626;2024-01-11T11:25:34;27.47;;;15.17;;
12871;SDS011;6504;53.766;9.626;2024-01-11T11:28:02;34.97;;;17.00;;
12871;SDS011;6504;53.766;9.626;2024-01-11T11:30:33;32.77;;;17.50;;
12871;SDS011;6504;53.766;9.626;2024-01-11T11:33:08;36.67;;;16.63;;
12871;SDS011;6504;53.766;9.626;2024-01-11T11:35:37;34.67;;;17.73;;
12871;SDS011;6504;53.766;9.626;2024-01-11T11:38:06;37.20;;;16.87;;
12871;SDS011;6504;53.766;9.626;2024-01-11T11:40:36;32.93;;;15.60;;
12871;SDS011;6504;53.766;9.626;2024-01-11T11:43:06;32.03;;;16.10;;
12871;SDS011;6504;53.766;9.626;2024-01-11T11:45:36;33.07;;;16.07;;
12871;SDS011;6504;53.766;9.626;2024-01-11T11:51:09;31.70;;;15.90;;
12871;SDS011;6504;53.766;9.626;2024-01-11T11:53:42;29.20;;;14.57;;
12871;SDS011;6504;53.766;9.626;2024-01-11T11:56:10;34.30;;;15.40;;
12871;SDS011;6504;53.766;9.626;2024-01-11T11:58:42;31.87;;;15.03;;
12871;SDS011;6504;53.766;9.626;2024-01-11T12:01:13;33.07;;;16.83;;
12871;SDS011;6504;53.766;9.626;2024-01-11T12:03:44;33.57;;;17.43;;
12871;SDS011;6504;53.766;9.626;2024-01-11T12:06:16;31.87;;;16.97;;
12871;SDS011;6504;53.766;9.626;2024-01-11T12:08:46;37.87;;;19.03;;
12871;SDS011;6504;53.766;9.626;2024-01-11T12:11:17;38.40;;;19.30;;
12871;SDS011;6504;53.766;9.626;2024-01-11T12:13:46;34.97;;;17.63;;
12871;SDS011;6504;53.766;9.626;2024-01-11T12:16:16;35.87;;;17.53;;
12871;SDS011;6504;53.766;9.626;2024-01-11T12:18:45;38.67;;;18.90;;
12871;SDS011;6504;53.766;9.626;2024-01-11T12:21:13;40.10;;;19.00;;
12871;SDS011;6504;53.766;9.626;2024-01-11T12:23:42;36.03;;;19.17;;
12871;SDS011;6504;53.766;9.626;2024-01-11T12:26:11;43.63;;;20.37;;
12871;SDS011;6504;53.766;9.626;2024-01-11T12:28:41;42.17;;;20.00;;
12871;SDS011;6504;53.766;9.626;2024-01-11T12:31:11;46.77;;;21.60;;
12871;SDS011;6504;53.766;9.626;2024-01-11T12:33:42;44.67;;;21.67;;
12871;SDS011;6504;53.766;9.626;2024-01-11T12:36:10;47.93;;;21.30;;
12871;SDS011;6504;53.766;9.626;2024-01-11T12:38:45;48.47;;;23.27;;
12871;SDS011;6504;53.766;9.626;2024-01-11T12:41:19;46.20;;;21.87;;
12871;SDS011;6504;53.766;9.626;2024-01-11T12:43:48;45.67;;;21.17;;
12871;SDS011;6504;53.766;9.626;2024-01-11T12:46:17;41.00;;;20.03;;
12871;SDS011;6504;53.766;9.626;2024-01-11T12:48:46;43.37;;;21.23;;
12871;SDS011;6504;53.766;9.626;2024-01-11T12:51:16;47.70;;;22.00;;
12871;SDS011;6504;53.766;9.626;2024-01-11T12:53:48;43.23;;;21.53;;
12871;SDS011;6504;53.766;9.626;2024-01-11T12:56:16;44.67;;;20.27;;
12871;SDS011;6504;53.766;9.626;2024-01-11T12:58:48;46.93;;;22.13;;
12871;SDS011;6504;53.766;9.626;2024-01-11T13:01:17;48.70;;;22.63;;
12871;SDS011;6504;53.766;9.626;2024-01-11T13:03:46;39.67;;;20.57;;
12871;SDS011;6504;53.766;9.626;2024-01-11T13:06:15;47.77;;;22.30;;
12871;SDS011;6504;53.766;9.626;2024-01-11T13:08:45;40.37;;;20.80;;
12871;SDS011;6504;53.766;9.626;2024-01-11T13:11:14;40.33;;;20.03;;
12871;SDS011;6504;53.766;9.626;2024-01-11T13:13:44;39.47;;;21.27;;
12871;SDS011;6504;53.766;9.626;2024-01-11T13:16:13;49.80;;;23.27;;
12871;SDS011;6504;53.766;9.626;2024-01-11T13:18:42;49.83;;;23.13;;
12871;SDS011;6504;53.766;9.626;2024-01-11T13:21:12;49.97;;;23.93;;
12871;SDS011;6504;53.766;9.626;2024-01-11T13:23:40;42.60;;;22.60;;
12871;SDS011;6504;53.766;9.626;2024-01-11T13:26:09;49.20;;;22.23;;
12871;SDS011;6504;53.766;9.626;2024-01-11T13:28:37;39.00;;;21.00;;
12871;SDS011;6504;53.766;9.626;2024-01-11T13:31:05;44.07;;;20.23;;
12871;SDS011;6504;53.766;9.626;2024-01-11T13:33:37;49.07;;;23.00;;
12871;SDS011;6504;53.766;9.626;2024-01-11T13:36:06;45.47;;;19.77;;
12871;SDS011;6504;53.766;9.626;2024-01-11T13:38:36;43.23;;;21.33;;
12871;SDS011;6504;53.766;9.626;2024-01-11T13:41:05;48.87;;;23.77;;
12871;SDS011;6504;53.766;9.626;2024-01-11T13:43:35;40.33;;;20.30;;
12871;SDS011;6504;53.766;9.626;2024-01-11T13:46:03;42.80;;;21.40;;
12871;SDS011;6504;53.766;9.626;2024-01-11T13:48:32;40.83;;;21.17;;
12871;SDS011;6504;53.766;9.626;2024-01-11T13:51:00;43.83;;;19.73;;
12871;SDS011;6504;53.766;9.626;2024-01-11T13:53:30;44.50;;;21.53;;
12871;SDS011;6504;53.766;9.626;2024-01-11T13:55:59;45.53;;;20.87;;
12871;SDS011;6504;53.766;9.626;2024-01-11T13:58:28;42.50;;;21.63;;
12871;SDS011;6504;53.766;9.626;2024-01-11T14:00:57;44.10;;;20.93;;
12871;SDS011;6504;53.766;9.626;2024-01-11T14:03:25;40.97;;;18.60;;
12871;SDS011;6504;53.766;9.626;2024-01-11T14:05:54;44.97;;;20.50;;
12871;SDS011;6504;53.766;9.626;2024-01-11T14:08:22;46.37;;;22.03;;
12871;SDS011;6504;53.766;9.626;2024-01-11T14:10:51;43.37;;;20.73;;
12871;SDS011;6504;53.766;9.626;2024-01-11T14:13:21;44.90;;;22.33;;
12871;SDS011;6504;53.766;9.626;2024-01-11T14:15:49;41.20;;;20.63;;
12871;SDS011;6504;53.766;9.626;2024-01-11T14:18:17;41.20;;;20.13;;
12871;SDS011;6504;53.766;9.626;2024-01-11T14:20:46;40.60;;;19.63;;
12871;SDS011;6504;53.766;9.626;2024-01-11T14:23:15;38.63;;;18.47;;
12871;SDS011;6504;53.766;9.626;2024-01-11T14:25:43;38.00;;;18.07;;
12871;SDS011;6504;53.766;9.626;2024-01-11T14:28:11;37.23;;;19.53;;
12871;SDS011;6504;53.766;9.626;2024-01-11T14:30:41;39.83;;;19.60;;
12871;SDS011;6504;53.766;9.626;2024-01-11T14:33:09;37.57;;;18.70;;
12871;SDS011;6504;53.766;9.626;2024-01-11T14:35:38;35.87;;;18.27;;
12871;SDS011;6504;53.766;9.626;2024-01-11T14:38:06;33.33;;;16.43;;
12871;SDS011;6504;53.766;9.626;2024-01-11T14:40:34;31.97;;;14.43;;
12871;SDS011;6504;53.766;9.626;2024-01-11T14:43:03;27.37;;;13.93;;
12871;SDS011;6504;53.766;9.626;2024-01-11T14:45:32;24.67;;;12.70;;
12871;SDS011;6504;53.766;9.626;2024-01-11T14:48:01;18.70;;;8.40;;
12871;SDS011;6504;53.766;9.626;2024-01-11T14:50:30;18.73;;;7.63;;
12871;SDS011;6504;53.766;9.626;2024-01-11T14:52:58;15.83;;;7.33;;